Time;durP1;ratioP1;P1;durP2;ratioP2;P2;SDS_P1;SDS_P2;PMS_P1;PMS_P2;Temp;Humidity;BMP_temperature;BMP_pressure;BME280_temperature;BME280_humidity;BME280_pressure;Samples;Min_cycle;Max_cycle;Signal;HPM_P1;HPM_P2
2023/01/23 00:02:21;;;;;;;11.15;3.03;;;;;;;;;;4965080;28;20776;-71
2023/01/23 00:04:49;;;;;;;12.52;2.65;;;;;;;;;;4985166;28;20054;-70
2023/01/23 00:07:17;;;;;;;11.38;2.70;;;;;;;;;;4977088;28;20108;-71
2023/01/23 00:09:44;;;;;;;13.70;2.65;;;;;;;;;;4968353;28;20122;-71
2023/01/23 00:12:12;;;;;;;9.77;2.90;;;;;;;;;;4970423;28;20055;-71
2023/01/23 00:14:39;;;;;;;8.18;2.30;;;;;;;;;;4969808;28;20059;-71
2023/01/23 00:17:06;;;;;;;6.35;2.20;;;;;;;;;;4971168;28;20058;-71
2023/01/23 00:19:33;;;;;;;10.13;2.83;;;;;;;;;;4966947;28;20058;-71
2023/01/23 00:22:01;;;;;;;9.10;2.38;;;;;;;;;;4969694;28;20046;-71
2023/01/23 00:24:29;;;;;;;11.43;2.90;;;;;;;;;;4970322;28;20490;-71
2023/01/23 00:26:57;;;;;;;14.02;2.60;;;;;;;;;;4968896;28;20053;-71
2023/01/23 00:29:24;;;;;;;18.73;2.85;;;;;;;;;;4970551;28;20062;-71
2023/01/23 00:31:51;;;;;;;11.32;2.72;;;;;;;;;;4964897;28;20376;-71
2023/01/23 00:34:18;;;;;;;10.85;2.85;;;;;;;;;;4966555;28;20062;-71
2023/01/23 00:36:46;;;;;;;10.73;2.83;;;;;;;;;;4966567;28;20049;-70
2023/01/23 00:39:16;;;;;;;9.40;2.45;;;;;;;;;;4969453;28;20051;-71
2023/01/23 00:41:44;;;;;;;7.65;2.70;;;;;;;;;;4966416;28;20521;-71
2023/01/23 00:44:11;;;;;;;10.82;2.50;;;;;;;;;;4968068;28;20054;-71
2023/01/23 00:46:39;;;;;;;8.43;3.03;;;;;;;;;;4967508;28;20376;-71
2023/01/23 00:49:06;;;;;;;17.75;3.53;;;;;;;;;;4966382;28;20081;-71
2023/01/23 00:51:34;;;;;;;11.43;3.03;;;;;;;;;;4967967;28;20054;-71
2023/01/23 00:54:01;;;;;;;16.58;3.85;;;;;;;;;;4969128;28;20520;-71
2023/01/23 00:56:28;;;;;;;12.77;2.97;;;;;;;;;;4983087;28;20054;-71
2023/01/23 00:58:57;;;;;;;13.40;3.00;;;;;;;;;;4960035;28;20062;-71
2023/01/23 01:01:24;;;;;;;14.10;3.50;;;;;;;;;;4968098;28;20050;-71
2023/01/23 01:03:52;;;;;;;13.68;3.30;;;;;;;;;;4963454;28;20050;-71
2023/01/23 01:06:19;;;;;;;8.60;3.20;;;;;;;;;;4970609;28;20059;-71
2023/01/23 01:08:46;;;;;;;12.57;3.40;;;;;;;;;;4966587;28;20058;-71
2023/01/23 01:11:14;;;;;;;13.65;3.28;;;;;;;;;;4967884;28;20498;-71
2023/01/23 01:13:41;;;;;;;20.02;4.07;;;;;;;;;;4966366;28;20059;-71
2023/01/23 01:16:10;;;;;;;14.55;3.78;;;;;;;;;;4965794;28;20051;-71
2023/01/23 01:18:37;;;;;;;14.48;3.75;;;;;;;;;;4966806;28;20399;-71
2023/01/23 01:21:06;;;;;;;15.02;3.92;;;;;;;;;;4967686;28;20055;-71
2023/01/23 01:23:33;;;;;;;14.25;4.13;;;;;;;;;;4959290;28;20057;-71
2023/01/23 01:26:01;;;;;;;17.40;4.22;;;;;;;;;;4963397;28;20047;-71
2023/01/23 01:28:30;;;;;;;15.48;4.13;;;;;;;;;;4961968;28;20520;-71
2023/01/23 01:30:57;;;;;;;12.23;3.65;;;;;;;;;;4963749;28;20125;-71
2023/01/23 01:33:27;;;;;;;15.88;3.97;;;;;;;;;;4964759;28;20462;-71
2023/01/23 01:35:55;;;;;;;15.25;4.72;;;;;;;;;;4962635;28;20081;-71
2023/01/23 01:38:23;;;;;;;16.08;3.95;;;;;;;;;;4957820;28;20050;-71
2023/01/23 01:40:50;;;;;;;9.43;3.60;;;;;;;;;;4961958;28;20059;-71
2023/01/23 01:43:19;;;;;;;14.18;3.88;;;;;;;;;;4962896;28;20051;-70
2023/01/23 01:46:05;;;;;;;17.58;4.63;;;;;;;;;;4957888;28;20046;-71
2023/01/23 01:48:37;;;;;;;14.30;3.90;;;;;;;;;;4964127;28;20054;-71
2023/01/23 01:51:07;;;;;;;14.27;4.28;;;;;;;;;;4961531;28;20047;-71
2023/01/23 01:53:34;;;;;;;15.32;4.18;;;;;;;;;;4964582;28;20058;-71
2023/01/23 01:56:02;;;;;;;12.32;3.97;;;;;;;;;;4963320;28;20497;-71
2023/01/23 01:58:29;;;;;;;10.68;4.25;;;;;;;;;;4968787;28;20100;-71
2023/01/23 02:00:56;;;;;;;15.77;4.60;;;;;;;;;;4967630;28;20051;-71
2023/01/23 02:03:24;;;;;;;12.77;5.15;;;;;;;;;;4965449;28;20509;-70
2023/01/23 02:05:53;;;;;;;17.70;4.72;;;;;;;;;;4963071;28;20053;-71
2023/01/23 02:08:23;;;;;;;18.65;4.30;;;;;;;;;;4969715;28;20517;-71
2023/01/23 02:10:50;;;;;;;16.23;5.35;;;;;;;;;;4966958;28;20457;-71
2023/01/23 02:13:22;;;;;;;12.90;5.05;;;;;;;;;;4965956;28;20142;-71
2023/01/23 02:15:50;;;;;;;10.73;4.38;;;;;;;;;;4968306;28;20054;-71
2023/01/23 02:18:17;;;;;;;16.88;4.53;;;;;;;;;;4966837;28;20065;-71
2023/01/23 02:20:46;;;;;;;17.20;5.32;;;;;;;;;;4968951;28;20078;-71
2023/01/23 02:23:18;;;;;;;10.98;4.20;;;;;;;;;;4967516;28;20054;-71
2023/01/23 02:25:52;;;;;;;17.77;4.85;;;;;;;;;;4968149;28;20054;-71
2023/01/23 02:28:20;;;;;;;14.10;4.70;;;;;;;;;;4964897;28;20066;-71
2023/01/23 02:30:49;;;;;;;9.43;4.38;;;;;;;;;;4963861;28;20055;-71
2023/01/23 02:33:31;;;;;;;18.38;5.40;;;;;;;;;;4984334;28;20512;-71
2023/01/23 02:35:59;;;;;;;13.77;4.47;;;;;;;;;;4965958;28;20062;-71
2023/01/23 02:38:27;;;;;;;16.35;5.18;;;;;;;;;;4967734;28;20062;-71
2023/01/23 02:40:58;;;;;;;9.38;3.83;;;;;;;;;;4966285;28;20047;-71
2023/01/23 02:43:26;;;;;;;9.75;4.32;;;;;;;;;;4965410;28;20055;-71
2023/01/23 02:45:54;;;;;;;11.93;4.75;;;;;;;;;;4968829;28;20047;-71
2023/01/23 02:48:22;;;;;;;11.90;4.38;;;;;;;;;;4972137;28;20061;-71
2023/01/23 02:50:49;;;;;;;9.43;3.90;;;;;;;;;;4969579;28;20529;-71
2023/01/23 02:53:17;;;;;;;10.70;4.05;;;;;;;;;;4969495;28;20055;-71
2023/01/23 02:55:44;;;;;;;12.20;3.97;;;;;;;;;;4972980;28;20490;-71
2023/01/23 03:00:58;;;;;;;14.85;4.35;;;;;;;;;;4971632;28;20051;-71
2023/01/23 03:03:25;;;;;;;14.15;4.55;;;;;;;;;;4968344;28;20462;-71
2023/01/23 03:05:54;;;;;;;12.40;4.20;;;;;;;;;;4968978;28;20050;-71
2023/01/23 03:08:21;;;;;;;10.52;3.90;;;;;;;;;;4962072;28;20506;-71
2023/01/23 03:10:48;;;;;;;14.50;4.53;;;;;;;;;;4961952;28;20509;-71
2023/01/23 03:13:17;;;;;;;8.68;3.90;;;;;;;;;;4971113;28;20076;-71
2023/01/23 03:15:44;;;;;;;16.38;4.57;;;;;;;;;;4966021;28;20054;-71
2023/01/23 03:18:11;;;;;;;10.85;5.00;;;;;;;;;;4968079;28;20509;-71
2023/01/23 03:20:39;;;;;;;10.20;5.60;;;;;;;;;;4970464;28;20058;-71
2023/01/23 03:23:07;;;;;;;10.80;3.83;;;;;;;;;;4972434;28;20455;-71
2023/01/23 03:25:34;;;;;;;13.65;5.88;;;;;;;;;;4969390;28;20062;-71
2023/01/23 03:28:01;;;;;;;12.65;4.30;;;;;;;;;;4970737;28;20089;-71
2023/01/23 03:30:29;;;;;;;12.57;4.30;;;;;;;;;;4968502;28;20058;-71
2023/01/23 03:32:56;;;;;;;9.07;3.78;;;;;;;;;;4967733;28;20141;-71
2023/01/23 03:35:23;;;;;;;9.63;3.70;;;;;;;;;;4969337;28;20054;-71
2023/01/23 03:37:51;;;;;;;12.63;4.43;;;;;;;;;;4965075;28;20050;-71
2023/01/23 03:43:18;;;;;;;21.65;5.05;;;;;;;;;;4911827;29;20048;-71
2023/01/23 03:45:46;;;;;;;12.15;4.00;;;;;;;;;;4919921;29;20059;-71
2023/01/23 03:48:14;;;;;;;12.43;4.68;;;;;;;;;;4938091;28;20066;-71
2023/01/23 03:50:41;;;;;;;12.75;4.65;;;;;;;;;;4964933;28;20039;-71
2023/01/23 03:53:08;;;;;;;13.60;4.55;;;;;;;;;;4967863;28;20047;-71
2023/01/23 03:55:35;;;;;;;12.45;4.55;;;;;;;;;;4963161;28;20065;-71
2023/01/23 03:58:02;;;;;;;12.48;3.95;;;;;;;;;;4971672;28;20054;-71
2023/01/23 04:00:30;;;;;;;11.57;4.35;;;;;;;;;;4963049;28;20105;-71
2023/01/23 04:02:58;;;;;;;11.35;4.00;;;;;;;;;;4967792;28;20043;-71
2023/01/23 04:05:26;;;;;;;9.15;4.05;;;;;;;;;;4971261;28;20621;-71
2023/01/23 04:07:53;;;;;;;13.98;3.67;;;;;;;;;;4971209;28;20061;-71
2023/01/23 04:10:20;;;;;;;10.00;3.70;;;;;;;;;;4965286;28;20058;-71
2023/01/23 04:12:47;;;;;;;12.05;3.67;;;;;;;;;;4971189;28;20403;-71
2023/01/23 04:15:15;;;;;;;8.77;3.60;;;;;;;;;;4964571;28;20051;-71
2023/01/23 04:17:42;;;;;;;10.73;3.85;;;;;;;;;;4971877;28;20515;-71
2023/01/23 04:20:12;;;;;;;13.65;3.25;;;;;;;;;;4968630;28;20055;-71
2023/01/23 04:22:39;;;;;;;11.10;3.00;;;;;;;;;;4971761;28;20176;-71
2023/01/23 04:25:07;;;;;;;14.63;4.00;;;;;;;;;;4962659;28;20061;-71
2023/01/23 04:27:34;;;;;;;6.45;3.20;;;;;;;;;;4969835;28;20086;-71
2023/01/23 04:30:02;;;;;;;15.75;3.80;;;;;;;;;;4967017;28;20062;-71
2023/01/23 04:32:29;;;;;;;15.80;4.00;;;;;;;;;;4968347;28;20129;-71
2023/01/23 04:34:56;;;;;;;7.63;3.45;;;;;;;;;;4969553;28;20055;-71
2023/01/23 04:37:25;;;;;;;11.48;3.78;;;;;;;;;;4962476;28;20406;-71
2023/01/23 04:39:52;;;;;;;8.63;3.47;;;;;;;;;;4969465;28;20058;-71
2023/01/23 04:42:19;;;;;;;13.73;3.83;;;;;;;;;;4968470;28;20047;-71
2023/01/23 04:44:47;;;;;;;10.70;3.47;;;;;;;;;;4963878;28;20054;-71
2023/01/23 04:47:14;;;;;;;8.73;3.20;;;;;;;;;;4968831;28;20046;-71
2023/01/23 04:49:42;;;;;;;8.95;3.75;;;;;;;;;;4968847;28;21073;-71
2023/01/23 04:52:09;;;;;;;11.73;3.40;;;;;;;;;;4967066;28;20057;-71
2023/01/23 04:54:38;;;;;;;9.05;3.28;;;;;;;;;;4966839;28;20073;-71
2023/01/23 04:57:05;;;;;;;12.10;3.38;;;;;;;;;;4964189;28;20066;-71
2023/01/23 04:59:32;;;;;;;12.38;3.67;;;;;;;;;;4964980;28;20063;-71
2023/01/23 05:02:01;;;;;;;9.63;3.15;;;;;;;;;;4965108;28;20589;-71
2023/01/23 05:04:28;;;;;;;10.30;3.20;;;;;;;;;;4969640;28;20054;-71
2023/01/23 05:06:55;;;;;;;11.35;3.15;;;;;;;;;;4968452;28;20062;-71
2023/01/23 05:09:22;;;;;;;14.15;3.65;;;;;;;;;;4967668;28;20051;-71
2023/01/23 05:11:51;;;;;;;7.07;3.13;;;;;;;;;;4961117;28;20055;-71
2023/01/23 05:14:18;;;;;;;9.40;3.38;;;;;;;;;;4969632;28;20046;-71
2023/01/23 05:16:45;;;;;;;13.80;3.63;;;;;;;;;;4969360;28;20054;-71
2023/01/23 05:19:13;;;;;;;14.43;3.85;;;;;;;;;;4968769;28;20409;-71
2023/01/23 05:21:40;;;;;;;9.65;3.78;;;;;;;;;;4969230;28;20055;-71
2023/01/23 05:24:09;;;;;;;12.02;4.07;;;;;;;;;;4960384;28;20421;-72
2023/01/23 05:26:36;;;;;;;16.23;3.97;;;;;;;;;;4970223;28;20055;-71
2023/01/23 05:29:05;;;;;;;11.15;4.35;;;;;;;;;;4967762;28;20047;-71
2023/01/23 05:31:32;;;;;;;13.50;4.20;;;;;;;;;;4968163;28;20062;-71
2023/01/23 05:33:59;;;;;;;12.45;3.92;;;;;;;;;;4967418;28;20054;-71
2023/01/23 05:36:27;;;;;;;8.77;3.28;;;;;;;;;;4966189;28;20379;-71
2023/01/23 05:38:55;;;;;;;15.40;4.30;;;;;;;;;;4967521;28;20055;-71
2023/01/23 05:41:22;;;;;;;10.50;3.80;;;;;;;;;;4967595;28;20053;-71
2023/01/23 05:43:49;;;;;;;10.60;3.75;;;;;;;;;;4970310;28;20498;-71
2023/01/23 05:46:18;;;;;;;8.35;3.70;;;;;;;;;;4967125;28;20121;-71
2023/01/23 05:48:48;;;;;;;11.57;4.00;;;;;;;;;;4970632;28;20055;-70
2023/01/23 05:51:16;;;;;;;14.70;4.75;;;;;;;;;;4968708;28;20401;-72
2023/01/23 05:53:43;;;;;;;10.90;3.90;;;;;;;;;;4967089;28;20054;-71
2023/01/23 05:56:10;;;;;;;25.30;5.40;;;;;;;;;;4968521;28;20058;-71
2023/01/23 05:58:37;;;;;;;15.48;4.75;;;;;;;;;;4967031;28;21052;-70
2023/01/23 06:01:05;;;;;;;10.73;4.70;;;;;;;;;;4964140;28;20055;-71
2023/01/23 06:03:34;;;;;;;17.40;5.80;;;;;;;;;;4967211;28;20051;-71
2023/01/23 06:06:01;;;;;;;10.90;5.10;;;;;;;;;;4966407;28;20097;-71
2023/01/23 06:08:29;;;;;;;11.70;4.35;;;;;;;;;;4965334;28;20058;-71
2023/01/23 06:10:58;;;;;;;12.50;5.82;;;;;;;;;;4966649;28;20462;-71
2023/01/23 06:13:25;;;;;;;13.80;5.47;;;;;;;;;;4967057;28;20490;-71
2023/01/23 06:15:53;;;;;;;12.45;5.35;;;;;;;;;;4968634;28;20067;-71
2023/01/23 06:18:20;;;;;;;21.35;5.85;;;;;;;;;;4969238;28;20669;-71
2023/01/23 06:20:49;;;;;;;20.05;5.78;;;;;;;;;;4968013;28;20061;-71
2023/01/23 06:23:16;;;;;;;12.40;6.10;;;;;;;;;;4967792;28;20054;-71
2023/01/23 06:25:44;;;;;;;14.65;6.22;;;;;;;;;;4968254;28;20062;-71
2023/01/23 06:28:11;;;;;;;19.70;6.13;;;;;;;;;;4969111;28;20054;-71
2023/01/23 06:30:38;;;;;;;11.15;5.25;;;;;;;;;;4967931;28;20054;-71
2023/01/23 06:33:06;;;;;;;13.63;6.78;;;;;;;;;;4968084;28;20053;-71
2023/01/23 06:35:33;;;;;;;11.40;5.72;;;;;;;;;;4965730;28;20054;-71
2023/01/23 06:38:01;;;;;;;12.70;6.28;;;;;;;;;;4963570;28;20635;-72
2023/01/23 06:40:29;;;;;;;12.73;5.20;;;;;;;;;;4959145;28;20510;-73
2023/01/23 06:42:56;;;;;;;13.48;5.38;;;;;;;;;;4964261;28;20050;-73
2023/01/23 06:45:23;;;;;;;17.75;6.65;;;;;;;;;;4966563;28;20058;-73
2023/01/23 06:47:52;;;;;;;18.98;7.38;;;;;;;;;;4967714;28;20050;-73
2023/01/23 06:50:19;;;;;;;17.48;7.68;;;;;;;;;;4962661;28;20046;-73
2023/01/23 06:52:47;;;;;;;15.90;7.45;;;;;;;;;;4958805;28;20378;-73
2023/01/23 06:55:15;;;;;;;15.38;7.13;;;;;;;;;;4961342;28;20047;-73
2023/01/23 06:57:42;;;;;;;14.70;7.03;;;;;;;;;;4961919;28;20067;-73
2023/01/23 07:00:10;;;;;;;16.80;6.82;;;;;;;;;;4968691;28;20495;-73
2023/01/23 07:02:38;;;;;;;17.90;7.45;;;;;;;;;;4966947;28;20051;-73
2023/01/23 07:05:06;;;;;;;14.63;6.85;;;;;;;;;;4967850;28;20123;-73
2023/01/23 07:07:33;;;;;;;14.80;6.88;;;;;;;;;;4962576;28;20058;-73
2023/01/23 07:10:00;;;;;;;17.70;7.28;;;;;;;;;;4968579;28;20051;-73
2023/01/23 07:12:29;;;;;;;17.40;7.53;;;;;;;;;;4964885;28;20482;-73
2023/01/23 07:14:56;;;;;;;20.73;8.15;;;;;;;;;;4968465;28;20366;-73
2023/01/23 07:17:24;;;;;;;15.43;7.55;;;;;;;;;;4968549;28;20455;-73
2023/01/23 07:19:51;;;;;;;13.65;8.05;;;;;;;;;;4968116;28;20502;-73
2023/01/23 07:22:19;;;;;;;20.88;8.13;;;;;;;;;;4967759;28;20047;-73
2023/01/23 07:24:46;;;;;;;13.88;7.93;;;;;;;;;;4968783;28;20059;-73
2023/01/23 07:27:14;;;;;;;22.15;9.25;;;;;;;;;;4965115;28;20050;-73
2023/01/23 07:29:43;;;;;;;19.88;10.07;;;;;;;;;;4965994;28;20053;-73
2023/01/23 07:32:10;;;;;;;13.18;8.38;;;;;;;;;;4971399;28;20056;-73
2023/01/23 07:34:37;;;;;;;18.30;9.13;;;;;;;;;;4971169;28;20050;-73
2023/01/23 07:37:04;;;;;;;19.00;9.23;;;;;;;;;;4970753;28;20054;-73
2023/01/23 07:39:32;;;;;;;18.88;8.52;;;;;;;;;;4964489;28;20057;-73
2023/01/23 07:41:59;;;;;;;17.08;9.40;;;;;;;;;;4968127;28;20042;-73
2023/01/23 07:44:26;;;;;;;16.15;9.18;;;;;;;;;;4971580;28;20067;-73
2023/01/23 07:46:55;;;;;;;19.50;8.18;;;;;;;;;;4971420;28;20374;-73
2023/01/23 07:49:22;;;;;;;16.35;8.48;;;;;;;;;;4963179;28;20372;-73
2023/01/23 07:51:49;;;;;;;13.32;7.80;;;;;;;;;;4965377;28;20517;-73
2023/01/23 07:54:17;;;;;;;18.98;9.07;;;;;;;;;;4968335;28;20054;-72
2023/01/23 07:56:44;;;;;;;16.52;9.57;;;;;;;;;;4967174;28;20058;-73
2023/01/23 07:59:12;;;;;;;17.63;10.93;;;;;;;;;;4963628;28;20074;-73
2023/01/23 08:01:39;;;;;;;24.95;13.65;;;;;;;;;;4966072;28;20051;-73
2023/01/23 08:04:08;;;;;;;20.05;11.63;;;;;;;;;;4975231;28;20055;-73
2023/01/23 08:06:35;;;;;;;17.90;9.95;;;;;;;;;;4970213;28;20540;-73
2023/01/23 08:09:02;;;;;;;19.42;9.48;;;;;;;;;;4964133;28;20050;-73
2023/01/23 08:11:29;;;;;;;21.67;9.38;;;;;;;;;;4968076;28;20055;-73
2023/01/23 08:13:57;;;;;;;22.63;9.80;;;;;;;;;;4964303;28;20130;-72
2023/01/23 08:16:24;;;;;;;18.45;10.20;;;;;;;;;;4962802;28;20071;-73
2023/01/23 08:18:52;;;;;;;22.85;9.57;;;;;;;;;;4963000;28;20491;-72
2023/01/23 08:21:21;;;;;;;16.88;9.82;;;;;;;;;;4965483;28;20554;-73
2023/01/23 08:23:48;;;;;;;19.00;9.80;;;;;;;;;;4965193;28;20050;-73
2023/01/23 08:26:17;;;;;;;15.27;8.60;;;;;;;;;;4965965;28;20069;-73
2023/01/23 08:28:45;;;;;;;17.90;8.80;;;;;;;;;;4966440;28;20095;-73
2023/01/23 08:31:12;;;;;;;19.23;10.10;;;;;;;;;;4965373;28;20058;-73
2023/01/23 08:33:40;;;;;;;19.65;10.07;;;;;;;;;;4968961;28;20147;-73
2023/01/23 08:36:08;;;;;;;21.65;11.52;;;;;;;;;;4960139;28;20055;-73
2023/01/23 08:38:36;;;;;;;18.10;10.50;;;;;;;;;;4965146;28;20062;-73
2023/01/23 08:41:03;;;;;;;23.52;9.98;;;;;;;;;;4967116;28;20055;-73
2023/01/23 08:43:31;;;;;;;20.55;10.02;;;;;;;;;;4961870;28;20059;-73
2023/01/23 08:45:59;;;;;;;20.00;10.07;;;;;;;;;;4967339;28;20396;-74
2023/01/23 08:48:27;;;;;;;21.42;9.90;;;;;;;;;;4984074;28;20058;-73
2023/01/23 08:50:59;;;;;;;21.73;9.95;;;;;;;;;;4984122;28;20518;-73
2023/01/23 08:53:26;;;;;;;19.75;10.32;;;;;;;;;;4961370;28;20079;-73
2023/01/23 08:55:59;;;;;;;18.42;10.10;;;;;;;;;;4969564;28;20051;-73
2023/01/23 08:58:27;;;;;;;22.02;10.40;;;;;;;;;;4965954;28;20082;-73
2023/01/23 09:00:54;;;;;;;19.60;10.40;;;;;;;;;;4967406;28;20054;-73
2023/01/23 09:03:21;;;;;;;18.70;10.00;;;;;;;;;;4969432;28;20051;-73
2023/01/23 09:05:48;;;;;;;20.42;10.00;;;;;;;;;;4966373;28;20126;-73
2023/01/23 09:08:16;;;;;;;19.00;10.45;;;;;;;;;;4970799;28;20054;-73
2023/01/23 09:10:43;;;;;;;29.45;14.13;;;;;;;;;;4968249;28;20054;-73
2023/01/23 09:13:12;;;;;;;25.45;12.98;;;;;;;;;;4966892;28;20047;-73
2023/01/23 09:15:39;;;;;;;20.85;10.48;;;;;;;;;;4970071;28;20494;-73
2023/01/23 09:18:06;;;;;;;21.58;10.10;;;;;;;;;;4969334;28;20078;-73
2023/01/23 09:20:34;;;;;;;26.85;10.50;;;;;;;;;;4968055;28;20426;-73
2023/01/23 09:23:02;;;;;;;20.25;10.50;;;;;;;;;;4966269;28;20050;-73
2023/01/23 09:25:30;;;;;;;24.20;10.57;;;;;;;;;;4968398;28;20437;-73
2023/01/23 09:27:58;;;;;;;21.25;11.05;;;;;;;;;;4969662;28;20097;-73
2023/01/23 09:30:26;;;;;;;18.38;10.48;;;;;;;;;;4964628;28;20055;-73
2023/01/23 09:32:53;;;;;;;23.42;9.63;;;;;;;;;;4968728;28;20058;-73
2023/01/23 09:35:22;;;;;;;16.58;9.48;;;;;;;;;;4967689;28;20085;-73
2023/01/23 09:38:03;;;;;;;20.63;10.65;;;;;;;;;;4969912;28;20612;-73
2023/01/23 09:40:31;;;;;;;20.15;12.35;;;;;;;;;;4981983;28;20051;-73
2023/01/23 09:43:01;;;;;;;25.08;11.55;;;;;;;;;;4960308;28;20050;-73
2023/01/23 09:45:31;;;;;;;17.83;10.20;;;;;;;;;;4965066;28;20070;-73
2023/01/23 09:48:04;;;;;;;17.48;10.25;;;;;;;;;;4962968;28;20054;-73
2023/01/23 09:50:33;;;;;;;17.55;9.25;;;;;;;;;;4965815;28;20142;-73
2023/01/23 09:53:02;;;;;;;20.80;9.18;;;;;;;;;;4968769;28;20406;-73
2023/01/23 09:55:35;;;;;;;20.05;8.90;;;;;;;;;;4967578;28;20054;-72
2023/01/23 09:58:03;;;;;;;13.40;8.52;;;;;;;;;;4970604;28;20046;-73
2023/01/23 10:00:35;;;;;;;15.80;7.30;;;;;;;;;;4965598;28;20058;-73
2023/01/23 10:03:03;;;;;;;15.35;7.60;;;;;;;;;;4968276;28;20069;-73
2023/01/23 10:05:34;;;;;;;16.27;8.13;;;;;;;;;;4964038;28;20058;-73
2023/01/23 10:08:06;;;;;;;12.60;6.30;;;;;;;;;;4969599;28;20046;-73
2023/01/23 10:10:57;;;;;;;11.50;5.75;;;;;;;;;;4965699;28;20065;-73
2023/01/23 10:13:33;;;;;;;11.32;6.38;;;;;;;;;;4967267;28;20537;-73
2023/01/23 10:16:15;;;;;;;10.30;5.50;;;;;;;;;;4958045;28;20051;-73
2023/01/23 10:18:48;;;;;;;10.27;5.57;;;;;;;;;;4961691;28;20064;-73
2023/01/23 10:21:21;;;;;;;12.90;6.03;;;;;;;;;;4961698;28;20536;-74
2023/01/23 10:23:53;;;;;;;12.75;4.80;;;;;;;;;;4964797;28;20491;-73
2023/01/23 10:26:22;;;;;;;9.65;4.70;;;;;;;;;;4966617;28;20073;-72
2023/01/23 10:28:52;;;;;;;9.02;4.82;;;;;;;;;;4962978;28;20058;-73
2023/01/23 10:31:26;;;;;;;9.00;4.63;;;;;;;;;;4961699;28;20061;-73
2023/01/23 10:33:59;;;;;;;6.47;4.03;;;;;;;;;;4958291;28;20069;-73
2023/01/23 10:36:29;;;;;;;8.33;4.40;;;;;;;;;;4963842;28;20051;-73
2023/01/23 10:38:58;;;;;;;9.23;4.22;;;;;;;;;;4976263;28;20043;-73
2023/01/23 10:41:25;;;;;;;6.35;4.28;;;;;;;;;;4965155;28;20067;-73
2023/01/23 10:43:54;;;;;;;8.13;4.25;;;;;;;;;;4965346;28;20043;-73
2023/01/23 10:46:22;;;;;;;9.15;3.70;;;;;;;;;;4960921;28;20047;-73
2023/01/23 10:48:50;;;;;;;7.10;4.32;;;;;;;;;;4969213;28;20054;-74
2023/01/23 10:51:35;;;;;;;10.70;4.10;;;;;;;;;;4966190;28;20579;-74
2023/01/23 10:54:04;;;;;;;8.60;3.20;;;;;;;;;;4964569;28;20051;-73
2023/01/23 10:56:31;;;;;;;4.78;3.15;;;;;;;;;;4969350;28;20089;-73
2023/01/23 10:59:00;;;;;;;6.47;3.10;;;;;;;;;;4964507;28;20054;-73
2023/01/23 11:01:29;;;;;;;6.10;2.83;;;;;;;;;;4955317;28;20056;-73
2023/01/23 11:03:57;;;;;;;6.45;3.60;;;;;;;;;;4955353;28;20066;-72
2023/01/23 11:06:25;;;;;;;6.78;3.00;;;;;;;;;;4966112;28;20634;-73
2023/01/23 11:08:56;;;;;;;3.80;2.70;;;;;;;;;;4967113;28;20066;-73
2023/01/23 11:11:24;;;;;;;5.70;2.47;;;;;;;;;;4972731;28;20379;-72
2023/01/23 11:14:03;;;;;;;5.13;2.40;;;;;;;;;;4969246;28;20043;-73
2023/01/23 11:16:31;;;;;;;3.35;2.05;;;;;;;;;;4972433;28;20066;-73
2023/01/23 11:19:05;;;;;;;5.25;2.58;;;;;;;;;;4966409;28;20426;-73
2023/01/23 11:21:34;;;;;;;4.40;2.08;;;;;;;;;;4970117;28;20063;-73
2023/01/23 11:24:10;;;;;;;3.65;1.55;;;;;;;;;;4970941;28;20061;-73
2023/01/23 11:26:38;;;;;;;2.53;1.30;;;;;;;;;;4972358;28;20077;-73
2023/01/23 11:29:20;;;;;;;5.28;1.75;;;;;;;;;;4967906;28;20065;-73
2023/01/23 11:31:48;;;;;;;3.22;1.88;;;;;;;;;;4985884;28;20285;-73
2023/01/23 11:34:17;;;;;;;4.53;2.65;;;;;;;;;;4970218;28;20414;-73
2023/01/23 11:36:46;;;;;;;4.28;2.13;;;;;;;;;;4968645;28;20055;-73
2023/01/23 11:39:19;;;;;;;4.32;1.80;;;;;;;;;;4972592;28;20047;-73
2023/01/23 11:41:47;;;;;;;3.03;1.23;;;;;;;;;;4969967;28;20047;-73
2023/01/23 11:44:16;;;;;;;2.83;1.30;;;;;;;;;;4971828;28;20402;-73
2023/01/23 11:46:58;;;;;;;4.43;1.20;;;;;;;;;;4972161;28;20383;-73
2023/01/23 11:49:30;;;;;;;1.58;0.80;;;;;;;;;;4984822;28;20059;-73
2023/01/23 11:52:04;;;;;;;2.28;0.95;;;;;;;;;;4972409;28;20047;-73
2023/01/23 11:54:40;;;;;;;2.13;1.20;;;;;;;;;;4985263;28;20063;-73
2023/01/23 11:57:12;;;;;;;2.67;1.35;;;;;;;;;;4969308;28;20055;-73
2023/01/23 11:59:56;;;;;;;3.20;1.40;;;;;;;;;;4968540;28;20137;-73
2023/01/23 12:02:43;;;;;;;3.83;1.65;;;;;;;;;;4966920;28;20414;-73
2023/01/23 12:05:18;;;;;;;4.07;2.05;;;;;;;;;;4960508;28;20487;-73
2023/01/23 12:07:51;;;;;;;2.65;1.80;;;;;;;;;;4970101;28;20047;-73
2023/01/23 12:10:23;;;;;;;2.78;1.50;;;;;;;;;;4969989;28;20410;-73
2023/01/23 12:13:03;;;;;;;2.83;1.33;;;;;;;;;;4971663;28;20086;-73
2023/01/23 12:15:36;;;;;;;3.60;1.40;;;;;;;;;;4964561;28;20047;-73
2023/01/23 12:18:07;;;;;;;2.13;1.42;;;;;;;;;;4965835;28;20067;-73
2023/01/23 12:20:39;;;;;;;1.73;1.20;;;;;;;;;;4968151;28;20059;-73
2023/01/23 12:23:34;;;;;;;1.92;1.30;;;;;;;;;;4981129;28;20122;-73
2023/01/23 12:26:06;;;;;;;2.83;1.50;;;;;;;;;;4926529;28;20062;-73
2023/01/23 12:28:44;;;;;;;3.33;1.80;;;;;;;;;;4964750;28;20055;-73
2023/01/23 12:31:17;;;;;;;3.20;1.65;;;;;;;;;;4968885;28;20051;-73
2023/01/23 12:34:01;;;;;;;3.30;1.75;;;;;;;;;;4970959;28;20047;-73
2023/01/23 12:36:43;;;;;;;2.08;1.20;;;;;;;;;;4985304;28;20055;-73
2023/01/23 12:39:17;;;;;;;2.30;1.45;;;;;;;;;;4965467;28;20526;-73
2023/01/23 12:41:48;;;;;;;1.92;1.30;;;;;;;;;;4958592;28;20051;-73
2023/01/23 12:44:17;;;;;;;4.75;1.50;;;;;;;;;;4970063;28;20065;-73
2023/01/23 12:46:50;;;;;;;2.72;1.48;;;;;;;;;;4968195;28;20470;-73
2023/01/23 12:49:24;;;;;;;1.50;1.23;;;;;;;;;;4968304;28;20114;-72
2023/01/23 12:51:54;;;;;;;2.22;1.48;;;;;;;;;;4964896;28;20042;-73
2023/01/23 12:54:26;;;;;;;3.88;1.92;;;;;;;;;;4965763;28;20055;-73
2023/01/23 12:56:55;;;;;;;2.65;1.70;;;;;;;;;;4968658;28;20054;-73
2023/01/23 12:59:26;;;;;;;2.97;1.80;;;;;;;;;;4966931;28;20514;-73
2023/01/23 13:01:59;;;;;;;4.38;1.60;;;;;;;;;;4970473;28;20056;-73
2023/01/23 13:04:43;;;;;;;2.70;1.85;;;;;;;;;;4967895;28;20051;-73
2023/01/23 13:07:15;;;;;;;4.38;1.80;;;;;;;;;;4969261;28;20056;-73
2023/01/23 13:09:50;;;;;;;2.53;1.83;;;;;;;;;;4969125;28;20055;-73
2023/01/23 13:12:21;;;;;;;5.28;1.90;;;;;;;;;;4980985;28;20062;-73
2023/01/23 13:14:49;;;;;;;3.45;2.55;;;;;;;;;;4968389;28;20047;-73
2023/01/23 13:17:30;;;;;;;3.92;2.55;;;;;;;;;;4967735;28;20054;-73
2023/01/23 13:23:19;;;;;;;3.88;2.50;;;;;;;;;;4966182;28;21088;-73
2023/01/23 13:25:46;;;;;;;4.60;2.70;;;;;;;;;;4978300;28;20050;-74
2023/01/23 13:28:30;;;;;;;3.83;2.75;;;;;;;;;;4962517;28;20069;-74
2023/01/23 13:31:02;;;;;;;5.45;2.72;;;;;;;;;;4967531;28;20061;-73
2023/01/23 13:33:53;;;;;;;4.53;2.60;;;;;;;;;;4968570;28;20493;-73
2023/01/23 13:36:28;;;;;;;3.72;2.38;;;;;;;;;;4965115;28;20118;-73
2023/01/23 13:39:03;;;;;;;5.13;2.45;;;;;;;;;;4965834;28;20055;-73
2023/01/23 13:41:31;;;;;;;3.38;2.50;;;;;;;;;;4965697;28;20055;-73
2023/01/23 13:44:04;;;;;;;4.50;2.60;;;;;;;;;;4967958;28;20549;-74
2023/01/23 13:46:36;;;;;;;3.97;3.03;;;;;;;;;;4966624;28;20050;-73
2023/01/23 13:56:37;;;;;;;4.78;2.75;;;;;;;;;;4943194;28;20125;-73
2023/01/23 13:57:36;;;;;;;4.63;3.33;;;;;;;;;;4966348;28;20066;-73
2023/01/23 14:00:05;;;;;;;6.82;3.47;;;;;;;;;;4966954;28;20058;-73
2023/01/23 14:05:23;;;;;;;5.07;2.92;;;;;;;;;;4982454;28;20486;-73
2023/01/23 14:07:54;;;;;;;4.82;2.70;;;;;;;;;;4985092;28;20050;-73
2023/01/23 14:10:23;;;;;;;4.88;3.28;;;;;;;;;;4959374;28;20125;-73
2023/01/23 14:12:51;;;;;;;5.70;4.03;;;;;;;;;;4966141;28;20054;-73
2023/01/23 14:18:17;;;;;;;6.20;3.95;;;;;;;;;;4964810;28;20134;-73
2023/01/23 14:20:45;;;;;;;5.00;4.10;;;;;;;;;;4963129;28;20063;-73
2023/01/23 14:23:18;;;;;;;6.80;4.03;;;;;;;;;;4962686;28;20046;-73
2023/01/23 14:25:45;;;;;;;6.57;3.75;;;;;;;;;;4968929;28;20434;-73
2023/01/23 14:28:16;;;;;;;5.93;3.80;;;;;;;;;;4963887;28;20567;-73
2023/01/23 14:30:52;;;;;;;5.75;3.90;;;;;;;;;;4966244;28;20391;-73
2023/01/23 14:33:20;;;;;;;5.90;3.63;;;;;;;;;;4981629;28;20047;-73
2023/01/23 14:35:47;;;;;;;9.20;5.35;;;;;;;;;;4959802;28;20051;-73
2023/01/23 14:38:19;;;;;;;9.55;4.28;;;;;;;;;;4963812;28;20050;-73
2023/01/23 14:40:46;;;;;;;8.98;4.63;;;;;;;;;;4973044;28;20078;-73
2023/01/23 14:43:18;;;;;;;6.78;4.25;;;;;;;;;;4972363;28;20046;-73
2023/01/23 14:45:48;;;;;;;9.02;5.18;;;;;;;;;;4971324;28;20047;-72
2023/01/23 14:48:16;;;;;;;8.70;5.47;;;;;;;;;;4970969;28;20137;-73
2023/01/23 14:50:44;;;;;;;9.57;6.13;;;;;;;;;;4970213;28;20082;-73
2023/01/23 14:53:13;;;;;;;8.23;5.05;;;;;;;;;;4970861;28;20417;-73
2023/01/23 14:55:41;;;;;;;6.88;4.97;;;;;;;;;;4972585;28;20498;-73
2023/01/23 14:58:11;;;;;;;9.18;5.82;;;;;;;;;;4972083;28;20069;-73
2023/01/23 15:00:40;;;;;;;9.55;6.50;;;;;;;;;;4969491;28;20069;-73
2023/01/23 15:03:12;;;;;;;9.20;6.22;;;;;;;;;;4973496;28;20049;-73
2023/01/23 15:05:40;;;;;;;6.85;5.20;;;;;;;;;;4970088;28;20421;-73
2023/01/23 15:08:19;;;;;;;7.95;4.78;;;;;;;;;;4967845;28;20043;-73